createdAt,value
2016-02-12T00:00:21.240Z,18.05
2016-02-12T00:01:21.336Z,18.05
2016-02-12T00:02:21.354Z,18.07
2016-02-12T00:03:21.388Z,18.07
2016-02-12T00:04:21.279Z,18.05
2016-02-12T00:05:21.532Z,18.04
2016-02-12T00:06:21.551Z,18.05
2016-02-12T00:07:21.600Z,18.03
2016-02-12T00:08:21.650Z,18.05
2016-02-12T00:09:21.716Z,18.05
2016-02-12T00:10:21.749Z,18.05
2016-02-12T00:11:21.824Z,18.11
2016-02-12T00:12:21.873Z,18.07
2016-02-12T00:13:21.924Z,18.07
2016-02-12T00:14:21.989Z,18.04
2016-02-12T00:15:21.898Z,18.07
2016-02-12T00:16:22.087Z,18.04
2016-02-12T00:17:22.138Z,18
2016-02-12T00:18:22.187Z,17.92
2016-02-12T00:19:22.237Z,17.98
2016-02-12T00:20:22.304Z,17.98
2016-02-12T00:21:22.368Z,18.01
2016-02-12T00:22:22.418Z,18.03
2016-02-12T00:23:22.451Z,18
2016-02-12T00:24:22.522Z,17.97
2016-02-12T00:25:22.529Z,17.98
2016-02-12T00:26:22.597Z,17.98
2016-02-12T00:27:22.619Z,18.04
2016-02-12T00:28:22.669Z,17.95
2016-02-12T00:29:22.728Z,17.97
2016-02-12T00:30:22.759Z,18
2016-02-12T00:31:22.819Z,17.97
2016-02-12T00:32:22.865Z,17.97
2016-02-12T00:33:22.926Z,17.98
2016-02-12T00:34:22.959Z,18
2016-02-12T00:35:23.007Z,18.01
2016-02-12T00:36:23.117Z,18.03
2016-02-12T00:37:23.106Z,17.94
2016-02-12T00:38:23.014Z,17.98
2016-02-12T00:39:23.219Z,17.98
2016-02-12T00:40:23.267Z,17.97
2016-02-12T00:41:23.363Z,17.94
2016-02-12T00:42:23.394Z,17.98
2016-02-12T00:43:23.427Z,18
2016-02-12T00:44:23.491Z,17.95
2016-02-12T00:45:23.541Z,18
2016-02-12T00:46:23.591Z,17.89
2016-02-12T00:47:23.640Z,17.95
2016-02-12T00:48:23.720Z,17.94
2016-02-12T00:49:23.754Z,17.89
2016-02-12T00:50:23.804Z,18.03
2016-02-12T00:51:23.854Z,17.9
2016-02-12T00:52:23.903Z,18.01
2016-02-12T00:53:23.968Z,17.95
2016-02-12T00:54:24.019Z,17.97
2016-02-12T00:55:24.068Z,17.9
2016-02-12T00:56:24.134Z,17.9
2016-02-12T00:57:24.168Z,17.89
2016-02-12T00:58:24.232Z,17.87
2016-02-12T00:59:24.299Z,17.9
2016-02-12T01:00:24.348Z,17.89
2016-02-12T01:01:24.398Z,17.94
2016-02-12T01:02:24.463Z,17.85
2016-02-12T01:03:24.505Z,17.9
2016-02-12T01:04:24.586Z,17.86
2016-02-12T01:05:24.604Z,17.86
2016-02-12T01:06:24.670Z,17.89
2016-02-12T01:07:24.719Z,17.86
2016-02-12T01:08:24.768Z,17.82
2016-02-12T01:09:24.818Z,17.85
2016-02-12T01:10:24.884Z,17.89
2016-02-12T01:11:24.935Z,17.87
2016-02-12T01:12:24.970Z,17.85
2016-02-12T01:13:25.054Z,17.87
2016-02-12T01:14:25.088Z,17.83
2016-02-12T01:15:25.153Z,17.85
2016-02-12T01:16:25.187Z,17.87
2016-02-12T01:17:25.252Z,17.9
2016-02-12T01:18:25.301Z,17.87
2016-02-12T01:19:25.367Z,17.82
2016-02-12T01:20:25.402Z,17.86
2016-02-12T01:21:25.466Z,17.89
2016-02-12T01:22:25.516Z,17.89
2016-02-12T01:23:25.582Z,17.89
2016-02-12T01:24:25.616Z,17.86
2016-02-12T01:25:25.665Z,17.89
2016-02-12T01:26:25.730Z,17.82
2016-02-12T01:27:25.779Z,17.85
2016-02-12T01:28:25.845Z,17.86
2016-02-12T01:29:25.879Z,17.85
2016-02-12T01:30:25.929Z,17.86
2016-02-12T01:31:26.026Z,17.86
2016-02-12T01:32:26.044Z,17.83
2016-02-12T01:33:26.110Z,17.8
2016-02-12T01:34:26.159Z,17.87
2016-02-12T01:35:26.225Z,17.86
2016-02-12T01:36:26.259Z,17.78
2016-02-12T01:37:26.324Z,17.87
2016-02-12T01:38:26.374Z,17.82
2016-02-12T01:39:26.439Z,17.83
2016-02-12T01:40:26.476Z,17.8
2016-02-12T01:41:26.556Z,17.79
2016-02-12T01:42:26.575Z,17.8
2016-02-12T01:43:26.659Z,17.8
2016-02-12T01:44:26.708Z,17.78
2016-02-12T01:45:26.758Z,17.94
2016-02-12T01:46:26.823Z,17.82
2016-02-12T01:47:26.858Z,17.83
2016-02-12T01:48:26.923Z,17.83
2016-02-12T01:49:26.957Z,17.79
2016-02-12T01:50:27.006Z,17.79
2016-02-12T01:51:27.103Z,17.79
2016-02-12T01:52:27.137Z,17.8
2016-02-12T01:53:27.186Z,17.76
2016-02-12T01:54:27.236Z,17.76
2016-02-12T01:55:27.286Z,17.79
2016-02-12T01:56:27.335Z,17.8
2016-02-12T01:57:27.386Z,17.76
2016-02-12T01:58:27.467Z,17.78
2016-02-12T01:59:27.500Z,17.8
2016-02-12T02:00:27.534Z,17.79
2016-02-12T02:01:27.600Z,17.79
2016-02-12T02:02:27.664Z,17.85
2016-02-12T02:03:27.730Z,17.79
2016-02-12T02:04:27.763Z,17.85
2016-02-12T02:05:27.829Z,17.8
2016-02-12T02:06:27.895Z,17.76
2016-02-12T02:07:27.914Z,17.76
2016-02-12T02:08:27.979Z,17.8
2016-02-12T02:09:28.028Z,17.78
2016-02-12T02:10:28.093Z,17.8
2016-02-12T02:11:28.143Z,17.8
2016-02-12T02:12:28.208Z,17.83
2016-02-12T02:13:28.274Z,17.86
2016-02-12T02:14:28.294Z,17.78
2016-02-12T02:15:28.359Z,17.78
2016-02-12T02:16:28.424Z,17.79
2016-02-12T02:17:28.489Z,17.82
2016-02-12T02:18:28.507Z,17.79
2016-02-12T02:19:28.604Z,17.76
2016-02-12T02:20:28.622Z,17.82
2016-02-12T02:21:28.672Z,17.79
2016-02-12T02:22:28.737Z,17.78
2016-02-12T02:23:28.834Z,17.8
2016-02-12T02:24:28.837Z,17.83
2016-02-12T02:25:28.885Z,17.82
2016-02-12T02:26:28.935Z,17.83
2016-02-12T02:27:29.032Z,17.8
2016-02-12T02:28:29.050Z,17.76
2016-02-12T02:29:29.100Z,17.8
2016-02-12T02:30:29.181Z,17.78
2016-02-12T02:31:29.215Z,17.85
2016-02-12T02:32:29.248Z,17.79
2016-02-12T02:33:29.329Z,17.78
2016-02-12T02:34:29.379Z,17.78
2016-02-12T02:35:29.459Z,17.78
2016-02-12T02:36:29.478Z,17.79
2016-02-12T02:37:29.528Z,17.79
2016-02-12T02:38:29.592Z,17.86
2016-02-12T02:39:29.642Z,17.79
2016-02-12T02:40:29.693Z,17.71
2016-02-12T02:41:29.742Z,17.8
2016-02-12T02:42:29.795Z,17.76
2016-02-12T02:43:29.830Z,17.76
2016-02-12T02:44:29.910Z,17.76
2016-02-12T02:45:29.976Z,17.82
2016-02-12T02:46:30.010Z,17.74
2016-02-12T02:47:30.074Z,17.79
2016-02-12T02:48:30.111Z,17.85
2016-02-12T02:49:30.176Z,17.76
2016-02-12T02:50:30.226Z,17.76
2016-02-12T02:51:30.276Z,17.78
2016-02-12T02:52:30.326Z,17.67
2016-02-12T02:53:30.391Z,17.76
2016-02-12T02:54:30.424Z,17.79
2016-02-12T02:55:30.491Z,17.76
2016-02-12T02:56:30.540Z,17.78
2016-02-12T02:57:30.589Z,17.71
2016-02-12T02:58:30.638Z,17.68
2016-02-12T02:59:30.704Z,17.7
2016-02-12T03:00:30.755Z,17.7
2016-02-12T03:01:30.805Z,17.71
2016-02-12T03:02:30.855Z,17.72
2016-02-12T03:03:30.903Z,17.74
2016-02-12T03:04:30.828Z,17.65
2016-02-12T03:05:31.019Z,17.64
2016-02-12T03:06:31.069Z,17.72
2016-02-12T03:07:31.149Z,17.76
2016-02-12T03:08:31.185Z,17.6
2016-02-12T03:09:31.219Z,17.54
2016-02-12T03:10:31.284Z,17.64
2016-02-12T03:11:31.182Z,17.64
2016-02-12T03:12:31.373Z,17.64
2016-02-12T03:13:31.437Z,17.63
2016-02-12T03:14:31.504Z,17.6
2016-02-12T03:15:31.554Z,17.59
2016-02-12T03:16:31.603Z,17.63
2016-02-12T03:17:31.638Z,17.65
2016-02-12T03:18:31.719Z,17.65
2016-02-12T03:19:31.753Z,17.59
2016-02-12T03:20:31.818Z,17.65
2016-02-12T03:21:31.899Z,17.67
2016-02-12T03:22:31.917Z,17.6
2016-02-12T03:23:31.966Z,17.6
2016-02-12T03:24:32.032Z,17.7
2016-02-12T03:25:32.082Z,17.59
2016-02-12T03:26:32.130Z,17.65
2016-02-12T03:27:32.166Z,17.56
2016-02-12T03:28:32.230Z,17.56
2016-02-12T03:29:32.310Z,17.63
2016-02-12T03:30:32.360Z,17.63
2016-02-12T03:31:32.394Z,17.54
2016-02-12T03:32:32.443Z,17.59
2016-02-12T03:33:32.509Z,17.6
2016-02-12T03:34:32.528Z,17.54
2016-02-12T03:35:32.610Z,17.64
2016-02-12T03:36:32.658Z,17.52
2016-02-12T03:37:32.709Z,17.51
2016-02-12T03:38:32.759Z,17.6
2016-02-12T03:39:32.824Z,17.59
2016-02-12T03:40:32.874Z,17.49
2016-02-12T03:41:32.939Z,17.65
2016-02-12T03:42:32.972Z,17.44
2016-02-12T03:43:33.027Z,17.59
2016-02-12T03:44:33.092Z,17.64
2016-02-12T03:45:33.126Z,17.59
2016-02-12T03:46:33.175Z,17.51
2016-02-12T03:47:33.240Z,17.6
2016-02-12T03:48:33.289Z,17.64
2016-02-12T03:49:33.355Z,17.46
2016-02-12T03:50:33.435Z,17.63
2016-02-12T03:51:33.470Z,17.54
2016-02-12T03:52:33.503Z,17.51
2016-02-12T03:53:33.569Z,17.51
2016-02-12T03:54:33.619Z,17.56
2016-02-12T03:55:33.668Z,17.49
2016-02-12T03:56:33.734Z,17.6
2016-02-12T03:57:33.798Z,17.64
2016-02-12T03:58:33.817Z,17.48
2016-02-12T03:59:33.867Z,17.64
2016-02-12T04:00:33.947Z,17.48
2016-02-12T04:01:33.981Z,17.52
2016-02-12T04:02:34.030Z,17.51
2016-02-12T04:03:34.097Z,17.48
2016-02-12T04:04:34.131Z,17.48
2016-02-12T04:05:34.195Z,17.52
2016-02-12T04:06:34.230Z,17.49
2016-02-12T04:07:34.295Z,17.56
2016-02-12T04:08:34.391Z,17.52
2016-02-12T04:09:34.410Z,17.48
2016-02-12T04:10:34.444Z,17.49
2016-02-12T04:11:34.527Z,17.52
2016-02-12T04:12:34.564Z,17.6
2016-02-12T04:13:34.614Z,17.46
2016-02-12T04:14:34.695Z,17.51
2016-02-12T04:15:34.729Z,17.49
2016-02-12T04:16:34.763Z,17.49
2016-02-12T04:17:34.860Z,17.54
2016-02-12T04:18:34.894Z,17.54
2016-02-12T04:19:34.959Z,17.57
2016-02-12T04:20:34.980Z,17.54
2016-02-12T04:21:35.044Z,17.52
2016-02-12T04:22:35.110Z,17.46
2016-02-12T04:23:35.159Z,17.52
2016-02-12T04:24:35.193Z,17.52
2016-02-12T04:25:35.289Z,17.51
2016-02-12T04:26:35.339Z,17.46
2016-02-12T04:27:35.373Z,17.49
2016-02-12T04:28:35.424Z,17.45
2016-02-12T04:29:35.473Z,17.46
2016-02-12T04:30:35.509Z,17.52
2016-02-12T04:31:35.573Z,17.52
2016-02-12T04:32:35.606Z,17.51
2016-02-12T04:33:35.688Z,17.51
2016-02-12T04:34:35.737Z,17.48
2016-02-12T04:35:35.787Z,17.48
2016-02-12T04:36:35.853Z,17.51
2016-02-12T04:37:35.903Z,17.42
2016-02-12T04:38:35.937Z,17.46
2016-02-12T04:39:36.002Z,17.51
2016-02-12T04:40:36.054Z,17.41
2016-02-12T04:41:36.072Z,17.48
2016-02-12T04:42:36.154Z,17.45
2016-02-12T04:43:36.218Z,17.44
2016-02-12T04:44:36.268Z,17.41
2016-02-12T04:45:36.348Z,17.44
2016-02-12T04:46:36.369Z,17.52
2016-02-12T04:47:36.433Z,17.41
2016-02-12T04:48:36.484Z,17.39
2016-02-12T04:49:36.518Z,17.41
2016-02-12T04:50:36.567Z,17.54
2016-02-12T04:51:36.649Z,17.44
2016-02-12T04:52:36.683Z,17.45
2016-02-12T04:53:36.732Z,17.44
2016-02-12T04:54:36.813Z,17.45
2016-02-12T04:55:36.846Z,17.42
2016-02-12T04:56:36.913Z,17.41
2016-02-12T04:57:36.961Z,17.42
2016-02-12T04:58:36.995Z,17.41
2016-02-12T04:59:37.076Z,17.42
2016-02-12T05:00:37.094Z,17.41
2016-02-12T05:01:37.160Z,17.36
2016-02-12T05:02:37.241Z,17.38
2016-02-12T05:03:37.259Z,17.42
2016-02-12T05:04:37.309Z,17.45
2016-02-12T05:05:37.373Z,17.36
2016-02-12T05:06:37.441Z,17.45
2016-02-12T05:07:37.474Z,17.44
2016-02-12T05:08:37.554Z,17.46
2016-02-12T05:09:37.588Z,17.39
2016-02-12T05:10:37.654Z,17.45
2016-02-12T05:11:37.676Z,17.41
2016-02-12T05:12:37.743Z,17.45
2016-02-12T05:13:37.807Z,17.46
2016-02-12T05:14:37.857Z,17.46
2016-02-12T05:15:37.890Z,17.41
2016-02-12T05:16:37.987Z,17.46
2016-02-12T05:17:38.021Z,17.45
2016-02-12T05:18:38.071Z,17.34
2016-02-12T05:19:38.121Z,17.44
2016-02-12T05:20:38.187Z,17.45
2016-02-12T05:21:38.220Z,17.39
2016-02-12T05:22:38.302Z,17.48
2016-02-12T05:23:38.320Z,17.41
2016-02-12T05:24:38.402Z,17.39
2016-02-12T05:25:38.451Z,17.33
2016-02-12T05:26:38.469Z,17.42
2016-02-12T05:27:38.534Z,17.41
2016-02-12T05:28:38.600Z,17.42
2016-02-12T05:29:38.618Z,17.39
2016-02-12T05:30:38.683Z,17.51
2016-02-12T05:31:38.763Z,17.42
2016-02-12T05:32:38.798Z,17.42
2016-02-12T05:33:38.847Z,17.31
2016-02-12T05:34:38.929Z,17.48
2016-02-12T05:35:38.963Z,17.36
2016-02-12T05:36:38.996Z,17.45
2016-02-12T05:37:39.107Z,17.34
2016-02-12T05:38:39.111Z,17.38
2016-02-12T05:39:39.160Z,17.41
2016-02-12T05:40:39.232Z,17.42
2016-02-12T05:41:39.282Z,17.31
2016-02-12T05:42:39.315Z,17.29
2016-02-12T05:43:39.382Z,17.39
2016-02-12T05:44:38.697Z,17.33
2016-02-12T05:45:39.465Z,17.36
2016-02-12T05:46:39.531Z,17.41
2016-02-12T05:47:39.580Z,17.34
2016-02-12T05:48:39.505Z,17.34
2016-02-12T05:49:39.712Z,17.33
2016-02-12T05:50:39.745Z,17.34
2016-02-12T05:51:39.827Z,17.33
2016-02-12T05:52:39.876Z,17.29
2016-02-12T05:53:39.895Z,17.31
2016-02-12T05:54:39.944Z,17.33
2016-02-12T05:55:40.056Z,17.31
2016-02-12T05:56:40.059Z,17.27
2016-02-12T05:57:40.111Z,17.26
2016-02-12T05:58:40.192Z,17.26
2016-02-12T05:59:40.257Z,17.31
2016-02-12T06:00:40.294Z,17.3
2016-02-12T06:01:40.312Z,17.27
2016-02-12T06:02:40.378Z,17.31
2016-02-12T06:03:40.442Z,17.24
2016-02-12T06:04:40.492Z,17.2
2016-02-12T06:05:40.558Z,17.16
2016-02-12T06:06:40.607Z,17.12
2016-02-12T06:07:40.656Z,17.23
2016-02-12T06:08:40.706Z,17.16
2016-02-12T06:09:40.787Z,17.16
2016-02-12T06:10:40.824Z,17.2
2016-02-12T06:11:40.843Z,17.2
2016-02-12T06:12:40.940Z,17.11
2016-02-12T06:13:40.957Z,17.15
2016-02-12T06:14:41.039Z,17.26
2016-02-12T06:15:41.088Z,17.22
2016-02-12T06:16:41.137Z,17.23
2016-02-12T06:17:41.188Z,17.14
2016-02-12T06:18:41.238Z,17.31
2016-02-12T06:19:41.287Z,17.2
2016-02-12T06:20:41.352Z,17.22
2016-02-12T06:21:41.433Z,17.22
2016-02-12T06:22:41.437Z,17.26
2016-02-12T06:23:41.501Z,17.3
2016-02-12T06:24:41.567Z,17.26
2016-02-12T06:25:41.585Z,17.23
2016-02-12T06:26:41.651Z,17.27
2016-02-12T06:27:41.732Z,17.22
2016-02-12T06:28:41.750Z,17.23
2016-02-12T06:29:41.799Z,17.23
2016-02-12T06:30:41.880Z,17.19
2016-02-12T06:31:41.930Z,17.23
2016-02-12T06:32:41.964Z,17.3
2016-02-12T06:33:42.060Z,17.23
2016-02-12T06:34:42.128Z,17.26
2016-02-12T06:35:42.131Z,17.27
2016-02-12T06:36:42.196Z,17.26
2016-02-12T06:37:42.245Z,17.26
2016-02-12T06:38:42.279Z,17.22
2016-02-12T06:39:42.345Z,17.26
2016-02-12T06:40:42.379Z,17.27
2016-02-12T06:41:42.476Z,17.24
2016-02-12T06:42:42.509Z,17.24
2016-02-12T06:43:42.546Z,17.23
2016-02-12T06:44:42.611Z,17.23
2016-02-12T06:45:42.662Z,17.26
2016-02-12T06:46:42.695Z,17.22
2016-02-12T06:47:42.760Z,17.15
2016-02-12T06:48:42.841Z,17.24
2016-02-12T06:49:42.890Z,17.29
2016-02-12T06:50:42.909Z,17.22
2016-02-12T06:51:42.974Z,17.29
2016-02-12T06:52:43.041Z,17.29
2016-02-12T06:53:43.090Z,17.23
2016-02-12T06:54:43.124Z,17.27
2016-02-12T06:55:43.205Z,17.15
2016-02-12T06:56:43.255Z,17.23
2016-02-12T06:57:43.305Z,17.2
2016-02-12T06:58:43.338Z,17.22
2016-02-12T06:59:43.404Z,17.29
2016-02-12T07:00:43.422Z,17.2
2016-02-12T07:01:43.489Z,17.24
2016-02-12T07:02:43.585Z,17.23
2016-02-12T07:03:43.619Z,17.29
2016-02-12T07:04:43.731Z,17.12
2016-02-12T07:05:43.703Z,17.24
2016-02-12T07:06:43.753Z,17.27
2016-02-12T07:07:43.834Z,17.23
2016-02-12T07:08:43.867Z,17.16
2016-02-12T07:09:43.918Z,17.2
2016-02-12T07:10:43.998Z,17.19
2016-02-12T07:11:44.036Z,17.27
2016-02-12T07:12:44.086Z,17.24
2016-02-12T07:13:44.151Z,17.15
2016-02-12T07:14:44.202Z,17.23
2016-02-12T07:15:44.235Z,17.16
2016-02-12T07:16:44.315Z,17.19
2016-02-12T07:17:44.397Z,17.12
2016-02-12T07:18:44.399Z,17.14
2016-02-12T07:19:44.480Z,17.3
2016-02-12T07:20:44.529Z,17.3
2016-02-12T07:21:44.548Z,17.29
2016-02-12T07:22:44.613Z,17.29
2016-02-12T07:23:44.693Z,17.22
2016-02-12T07:24:44.712Z,17.29
2016-02-12T07:25:44.762Z,17.24
2016-02-12T07:26:44.858Z,17.33
2016-02-12T07:27:44.877Z,17.33
2016-02-12T07:28:44.770Z,17.29
2016-02-12T07:29:44.992Z,17.27
2016-02-12T07:30:45.040Z,17.24
2016-02-12T07:31:45.106Z,17.3
2016-02-12T07:32:45.140Z,17.26
2016-02-12T07:33:45.189Z,17.22
2016-02-12T07:34:45.256Z,17.24
2016-02-12T07:35:45.304Z,17.29
2016-02-12T07:36:45.353Z,17.24
2016-02-12T07:37:45.404Z,17.27
2016-02-12T07:38:45.454Z,17.31
2016-02-12T07:39:45.503Z,17.27
2016-02-12T07:40:45.569Z,17.23
2016-02-12T07:41:45.619Z,17.24
2016-02-12T07:42:45.668Z,17.23
2016-02-12T07:43:45.734Z,17.15
2016-02-12T07:44:45.768Z,17.22
2016-02-12T07:45:45.849Z,17.11
2016-02-12T07:46:45.899Z,17.12
2016-02-12T07:47:45.933Z,17.02
2016-02-12T07:48:45.999Z,17.06
2016-02-12T07:49:46.047Z,16.99
2016-02-12T07:50:46.083Z,16.94
2016-02-12T07:51:46.147Z,16.9
2016-02-12T07:52:46.212Z,16.87
2016-02-12T07:53:46.246Z,16.83
2016-02-12T07:54:46.296Z,16.75
2016-02-12T07:55:46.347Z,16.76
2016-02-12T07:56:46.411Z,16.75
2016-02-12T07:57:46.461Z,16.71
2016-02-12T07:58:46.511Z,16.79
2016-02-12T07:59:46.575Z,16.66
2016-02-12T08:00:46.500Z,16.72
2016-02-12T08:01:46.660Z,16.75
2016-02-12T08:02:46.724Z,16.83
2016-02-12T08:03:46.792Z,16.69
2016-02-12T08:04:46.826Z,16.65
2016-02-12T08:05:46.875Z,16.66
2016-02-12T08:06:46.956Z,16.56
2016-02-12T08:07:46.990Z,16.49
2016-02-12T08:08:47.071Z,16.54
2016-02-12T08:09:47.073Z,16.54
2016-02-12T08:10:47.139Z,16.5
2016-02-12T08:11:47.204Z,16.46
2016-02-12T08:12:47.238Z,16.51
2016-02-12T08:13:47.291Z,16.46
2016-02-12T08:14:47.388Z,16.46
2016-02-12T08:15:47.407Z,16.5
2016-02-12T08:16:47.456Z,16.49
2016-02-12T08:17:47.522Z,16.53
2016-02-12T08:18:47.571Z,16.46
2016-02-12T08:19:47.605Z,16.46
2016-02-12T08:20:47.688Z,16.41
2016-02-12T08:21:47.721Z,16.46
2016-02-12T08:22:47.834Z,16.39
2016-02-12T08:23:47.840Z,16.39
2016-02-12T08:24:47.858Z,16.41
2016-02-12T08:25:47.938Z,16.38
2016-02-12T08:26:48.004Z,16.33
2016-02-12T08:27:48.022Z,16.29
2016-02-12T08:28:48.117Z,16.29
2016-02-12T08:29:48.152Z,16.28
2016-02-12T08:30:48.635Z,16.29
2016-02-12T08:31:48.246Z,16.16
2016-02-12T08:32:48.328Z,16.17
2016-02-12T08:33:48.345Z,16.2
2016-02-12T08:34:48.427Z,16.09
2016-02-12T08:35:48.445Z,16.1
2016-02-12T08:36:48.510Z,16.08
2016-02-12T08:37:48.560Z,16.05
2016-02-12T08:38:48.609Z,15.97
2016-02-12T08:39:48.675Z,15.94
2016-02-12T08:40:48.729Z,15.97
2016-02-12T08:41:48.794Z,15.84
2016-02-12T08:42:48.844Z,15.82
2016-02-12T08:43:48.896Z,15.86
2016-02-12T08:44:48.929Z,15.86
2016-02-12T08:45:48.963Z,15.9
2016-02-12T08:46:49.029Z,15.79
2016-02-12T08:47:49.077Z,15.8
2016-02-12T08:48:49.144Z,15.82
2016-02-12T08:49:49.179Z,15.79
2016-02-12T08:50:49.229Z,15.67
2016-02-12T08:51:49.294Z,15.68
2016-02-12T08:52:49.343Z,15.7
2016-02-12T08:53:49.393Z,15.7
2016-02-12T08:54:49.458Z,15.68
2016-02-12T08:55:49.336Z,15.67
2016-02-12T08:56:49.526Z,15.64
2016-02-12T08:57:49.606Z,15.67
2016-02-12T08:58:49.657Z,15.64
2016-02-12T08:59:49.707Z,15.58
2016-02-12T09:00:49.772Z,15.64
2016-02-12T09:01:49.822Z,15.62
2016-02-12T09:02:49.840Z,15.62
2016-02-12T09:03:49.170Z,15.59
2016-02-12T09:04:50.006Z,15.58
2016-02-12T09:05:49.994Z,15.65
2016-02-12T09:06:50.059Z,15.57
2016-02-12T09:07:50.139Z,15.62
2016-02-12T09:08:50.174Z,15.57
2016-02-12T09:09:50.208Z,15.57
2016-02-12T09:10:50.288Z,15.58
2016-02-12T09:11:50.353Z,15.55
2016-02-12T09:12:50.391Z,15.59
2016-02-12T09:13:50.424Z,15.52
2016-02-12T09:14:50.474Z,15.57
2016-02-12T09:15:50.556Z,15.49
2016-02-12T09:16:50.590Z,15.49
2016-02-12T09:17:50.639Z,15.52
2016-02-12T09:18:50.703Z,15.47
2016-02-12T09:19:50.754Z,15.47
2016-02-12T09:20:50.789Z,15.59
2016-02-12T09:21:50.854Z,15.43
2016-02-12T09:22:50.904Z,15.52
2016-02-12T09:23:50.955Z,15.44
2016-02-12T09:24:50.848Z,15.4
2016-02-12T09:25:51.039Z,15.42
2016-02-12T09:26:51.120Z,15.44
2016-02-12T09:27:51.170Z,15.42
2016-02-12T09:28:51.235Z,15.43
2016-02-12T09:29:51.266Z,15.46
2016-02-12T09:30:51.303Z,15.43
2016-02-12T09:31:51.339Z,15.39
2016-02-12T09:32:51.393Z,15.42
2016-02-12T09:33:51.436Z,15.35
2016-02-12T09:34:51.458Z,15.39
2016-02-12T09:35:51.535Z,15.43
2016-02-12T09:36:51.564Z,15.44
2016-02-12T09:37:51.608Z,15.4
2016-02-12T09:38:51.653Z,15.29
2016-02-12T09:39:51.700Z,15.42
2016-02-12T09:40:51.794Z,15.29
2016-02-12T09:41:51.796Z,15.28
2016-02-12T09:42:51.844Z,15.19
2016-02-12T09:43:51.892Z,15.18
2016-02-12T09:44:51.957Z,15.17
2016-02-12T09:45:51.991Z,15.06
2016-02-12T09:46:52.055Z,15.04
2016-02-12T09:47:52.103Z,15.03
2016-02-12T09:48:52.137Z,14.99
2016-02-12T09:49:52.186Z,14.96
2016-02-12T09:50:52.267Z,15.04
2016-02-12T09:51:54.538Z,15.02
2016-02-12T09:52:52.353Z,14.94
2016-02-12T09:53:52.403Z,14.99
2016-02-12T09:54:52.452Z,14.99
2016-02-12T09:55:52.518Z,15.02
2016-02-12T09:56:52.537Z,15
2016-02-12T09:57:52.601Z,14.97
2016-02-12T09:58:52.681Z,15.04
2016-02-12T09:59:52.715Z,14.99
2016-02-12T10:00:52.750Z,15.03
2016-02-12T10:01:52.831Z,15.04
2016-02-12T10:02:55.909Z,15.03
2016-02-12T10:03:52.928Z,15.04
2016-02-12T10:04:52.962Z,14.89
2016-02-12T10:05:53.013Z,14.85
2016-02-12T10:06:53.108Z,14.84
2016-02-12T10:07:53.127Z,14.82
2016-02-12T10:08:53.177Z,14.85
2016-02-12T10:09:53.229Z,14.82
2016-02-12T10:10:53.278Z,14.7
2016-02-12T10:11:53.329Z,14.73
2016-02-12T10:12:53.409Z,14.7
2016-02-12T10:13:53.462Z,14.7
2016-02-12T10:14:53.497Z,14.72
2016-02-12T10:15:53.546Z,14.73
2016-02-12T10:16:53.580Z,14.77
2016-02-12T10:17:53.645Z,14.78
2016-02-12T10:18:53.696Z,14.78
2016-02-12T10:19:53.745Z,14.78
2016-02-12T10:20:53.826Z,14.73
2016-02-12T10:21:53.875Z,14.73
2016-02-12T10:22:53.909Z,14.7
2016-02-12T10:23:53.944Z,14.72
2016-02-12T10:24:54.009Z,14.7
2016-02-12T10:25:54.059Z,14.82
2016-02-12T10:26:54.092Z,14.73
2016-02-12T10:27:54.160Z,14.7
2016-02-12T10:28:54.193Z,14.7
2016-02-12T10:29:54.274Z,14.72
2016-02-12T10:30:54.293Z,14.77
2016-02-12T10:31:54.373Z,14.73
2016-02-12T10:32:54.423Z,14.69
2016-02-12T10:33:54.441Z,14.78
2016-02-12T10:34:54.490Z,14.82
2016-02-12T10:35:54.572Z,14.86
2016-02-12T10:36:54.638Z,14.79
2016-02-12T10:37:54.656Z,14.89
2016-02-12T10:38:54.723Z,14.81
2016-02-12T10:39:54.773Z,14.69
2016-02-12T10:40:54.822Z,14.72
2016-02-12T10:41:54.871Z,14.81
2016-02-12T10:42:54.937Z,14.79
2016-02-12T10:43:54.976Z,14.85
2016-02-12T10:44:55.056Z,14.77
2016-02-12T10:45:55.090Z,14.82
2016-02-12T10:46:55.124Z,14.82
2016-02-12T10:47:55.196Z,14.85
2016-02-12T10:48:55.245Z,14.85
2016-02-12T10:49:55.263Z,14.79
2016-02-12T10:50:55.313Z,14.86
2016-02-12T10:51:55.394Z,14.88
2016-02-12T10:52:55.443Z,14.85
2016-02-12T10:53:55.478Z,14.89
2016-02-12T10:54:55.542Z,14.99
2016-02-12T10:55:55.592Z,15.02
2016-02-12T10:56:55.658Z,15
2016-02-12T10:57:55.691Z,14.97
2016-02-12T10:58:55.741Z,15.06
2016-02-12T10:59:55.806Z,15.04
2016-02-12T11:00:55.839Z,15.09
2016-02-12T11:01:55.889Z,15.1
2016-02-12T11:02:55.955Z,15.09
2016-02-12T11:03:56.004Z,15.15
2016-02-12T11:04:56.056Z,15.22
2016-02-12T11:05:56.120Z,15.27
2016-02-12T11:06:56.169Z,15.25
2016-02-12T11:07:56.203Z,15.29
2016-02-12T11:08:56.236Z,15.29
2016-02-12T11:09:56.286Z,15.28
2016-02-12T11:10:56.399Z,15.27
2016-02-12T11:11:56.417Z,15.29
2016-02-12T11:12:56.466Z,15.27
2016-02-12T11:13:56.521Z,15.29
2016-02-12T11:14:56.585Z,15.24
2016-02-12T11:15:56.603Z,15.27
2016-02-12T11:16:56.670Z,15.24
2016-02-12T11:17:56.734Z,15.27
2016-02-12T11:18:56.768Z,15.29
2016-02-12T11:19:56.833Z,15.21
2016-02-12T11:20:56.884Z,15.11
2016-02-12T11:21:56.949Z,15.11
2016-02-12T11:22:56.983Z,15.11
2016-02-12T11:23:57.018Z,15.14
2016-02-12T11:24:57.082Z,15.17
2016-02-12T11:25:57.148Z,15.14
2016-02-12T11:26:57.182Z,15.21
2016-02-12T11:27:57.231Z,15.22
2016-02-12T11:28:57.312Z,15.21
2016-02-12T11:29:57.334Z,15.29
2016-02-12T11:30:57.212Z,15.24
2016-02-12T11:31:57.465Z,15.31
2016-02-12T11:32:57.500Z,15.27
2016-02-12T11:33:57.580Z,15.29
2016-02-12T11:34:57.583Z,15.09
2016-02-12T11:35:57.664Z,15.19
2016-02-12T11:36:57.697Z,15.17
2016-02-12T11:37:57.747Z,15.18
2016-02-12T11:38:57.784Z,15.15
2016-02-12T11:39:57.708Z,15.17
2016-02-12T11:40:57.883Z,15.11
2016-02-12T11:41:57.933Z,15.19
2016-02-12T11:42:58.014Z,15.22
2016-02-12T11:43:58.078Z,15.24
2016-02-12T11:44:58.101Z,15.29
2016-02-12T11:45:58.182Z,15.25
2016-02-12T11:46:58.201Z,15.31
2016-02-12T11:47:58.282Z,15.31
2016-02-12T11:48:58.316Z,15.27
2016-02-12T11:49:58.334Z,15.33
2016-02-12T11:50:58.447Z,15.28
2016-02-12T11:51:58.481Z,15.43
2016-02-12T11:52:58.515Z,15.36
2016-02-12T11:53:58.596Z,15.46
2016-02-12T11:54:58.614Z,15.31
2016-02-12T11:55:58.664Z,15.42
2016-02-12T11:56:58.731Z,15.35
2016-02-12T11:57:58.796Z,15.42
2016-02-12T11:58:58.830Z,15.42
2016-02-12T11:59:58.897Z,15.42
2016-02-12T12:00:58.931Z,15.36
2016-02-12T12:01:58.997Z,15.33
2016-02-12T12:02:59.046Z,15.33
2016-02-12T12:03:59.080Z,15.33
2016-02-12T12:04:59.146Z,15.27
2016-02-12T12:05:59.196Z,15.24
2016-02-12T12:06:59.245Z,15.27
2016-02-12T12:07:59.296Z,15.24
2016-02-12T12:08:59.377Z,15.27
2016-02-12T12:09:59.396Z,15.35
2016-02-12T12:10:59.460Z,15.36
2016-02-12T12:11:59.494Z,15.36
2016-02-12T12:12:59.559Z,15.42
2016-02-12T12:13:59.609Z,15.4
2016-02-12T12:14:59.643Z,15.44
2016-02-12T12:15:59.725Z,15.4
2016-02-12T12:16:59.792Z,15.35
2016-02-12T12:17:59.809Z,15.33
2016-02-12T12:18:59.859Z,15.36
2016-02-12T12:19:59.925Z,15.28
2016-02-12T12:20:59.959Z,15.27
2016-02-12T12:22:00.008Z,15.35
2016-02-12T12:23:00.089Z,15.29
2016-02-12T12:24:00.123Z,15.39
2016-02-12T12:25:00.157Z,15.4
2016-02-12T12:26:00.223Z,15.4
2016-02-12T12:27:00.287Z,15.29
2016-02-12T12:28:00.321Z,15.28
2016-02-12T12:29:00.387Z,15.27
2016-02-12T12:30:00.436Z,15.35
2016-02-12T12:31:00.471Z,15.36
2016-02-12T12:32:00.537Z,15.36
2016-02-12T12:33:00.585Z,15.29
2016-02-12T12:34:00.605Z,15.29
2016-02-12T12:35:00.670Z,15.29
2016-02-12T12:36:00.735Z,15.29
2016-02-12T12:37:00.785Z,15.33
2016-02-12T12:38:00.850Z,15.29
2016-02-12T12:39:00.884Z,15.31
2016-02-12T12:40:00.965Z,15.39
2016-02-12T12:41:00.998Z,15.37
2016-02-12T12:42:01.022Z,15.28
2016-02-12T12:43:01.087Z,15.36
2016-02-12T12:44:01.153Z,15.28
2016-02-12T12:45:01.186Z,15.33
2016-02-12T12:46:01.237Z,15.33
2016-02-12T12:47:01.302Z,15.25
2016-02-12T12:48:01.335Z,15.15
2016-02-12T12:49:01.385Z,15.11
2016-02-12T12:50:01.466Z,15.14
2016-02-12T12:51:01.485Z,15.17
2016-02-12T12:52:01.566Z,15.11
2016-02-12T12:53:01.585Z,15.15
2016-02-12T12:54:01.650Z,15.15
2016-02-12T12:55:01.715Z,15.17
2016-02-12T12:56:01.749Z,15.11